Gael Benítez

Olheiro-Chefe - Mitre
3 Dez 2028
Domingo
Processo

Personalidade

Adaptabilidade (19) Ambição (13) Controvérsia (3) Lealdade (6) Pressão (9) Profissionalismo (16) Espírito Esportivo (3) Temperamento (6)

Perfil

Estilo de Treinamento Democrático
Licença Continental C
Determinação 5
Gestão de Pessoas 6
Motivação 7
Disciplina 3
Satisfação no Trabalho
100%
Fadiga
0%
Função Olheiro-Chefe
Salário 15.4K p/s
Contrato 14.03.2030

Desempenho

Comportamento Bom
Eficácia do Treinamento
19%
Desenvolvimento do Jogador
25%
Prevenção de Lesões
5%
Implementação Tática
25%

Eventos Recentes

Participou de uma reunião de recrutamento agora
Participou de uma reunião de recrutamento agora
Participou de uma reunião de recrutamento agora
Participou de uma reunião de recrutamento agora
Participou de uma reunião de recrutamento 7d atrás
Participou de uma reunião de recrutamento 7d atrás
Participou de uma reunião de recrutamento 7d atrás
Participou de uma reunião de recrutamento 7d atrás

Monitorando agora

161
Jogador Clube Status Habilidade Confiança Observado Última observação Último voto
Juan Esteban Gómez Atletico Nacional Ativo 90 / 90 40% 1 02.06.2028 -
Fabrisio Mesías Alianza Lima Ativo 80 / 79 40% 1 02.06.2028 -
Joaquín Bigo Tristán Suárez Ativo 100 / 106 40% 3 30.05.2028 -
Kevin Soria Tigres Ativo 81 / 98 40% 1 30.05.2028 -
Juan Pablo Zozaya Estudiantes Ativo 119 / 127 40% 2 29.05.2028 -
Facundo Machado Racing Ativo 100 / 106 40% 3 27.05.2028 -
Alejo Medina Agropecuario Argentino Ativo 95 / 118 40% 1 27.05.2028 -
Lautaro Herrera Estudiantes Ativo 95 / 103 40% 1 26.05.2028 -
Jerónimo Osorno Deportivo Pasto Ativo 81 / 98 40% 1 26.05.2028 -
Alejandro Amaya Union Magdalena Ativo 90 / 100 40% 1 23.05.2028 -
Alex Payares Barranquilla Ativo 102 / 101 40% 1 23.05.2028 -
Mateo Clemente San Lorenzo Ativo 115 / 125 40% 1 22.05.2028 -
Luciano Peraggini Maipú Ativo 116 / 106 40% 1 21.05.2028 -
Anthony Cletus Bendel Insurance Ativo 97 / 108 40% 1 20.05.2028 -
Sebastián Amasifuén Alianza Lima Ativo 92 / 97 40% 1 17.05.2028 -
Tomás Palleres Güemes Ativo 99 / 103 40% 1 15.05.2028 -
Ramiro Méndez La Luz Ativo 121 / 113 40% 2 13.05.2028 Mais informações
Edimer Zea Atletico Nacional Ativo 85 / 94 40% 1 13.05.2028 -
Ángel Maciel Tacuarembo Ativo 117 / 115 40% 3 11.05.2028 -
Stefano Condino All Boys Ativo 86 / 103 40% 2 11.05.2028 -
Anthony Vilche Colon Ativo 90 / 95 40% 2 09.05.2028 -
Juan David Lázaro Patriotas Ativo 102 / 104 40% 1 07.05.2028 -
Facundo Vila Estudiantes Ativo 111 / 113 40% 1 04.05.2028 -
Luciano Jachfe Nueva Chicago Ativo 124 / 115 40% 1 02.05.2028 Mais informações
Lautaro Petruchi Gimnasia y Esgrima Ativo 108 / 116 40% 3 01.05.2028 -
Christian Ramadjingaye Aiglons Ativo 90 / 70 40% 2 01.05.2028 -
Josué Reinatti Newell's Old Boys Ativo 119 / 126 40% 1 28.04.2028 -
Mauro Casoli Talleres Ativo 97 / 110 40% 1 28.04.2028 -
Esteban Glellel Quilmes Ativo 128 / 112 40% 1 27.04.2028 -
Juan Pablo Rial San Telmo Ativo 117 / 110 40% 1 27.04.2028 -
Federico Bisanz Atlanta Ativo 110 / 120 40% 1 29.11.2026 -
Matías Núñez Carabobo Ativo 92 / 109 40% 1 29.11.2026 -
Cristhofer Mesías Universidad de Concepcion Ativo 115 / 109 40% 3 28.11.2026 -
Franco Vedoya Central Norte Ativo 98 / 117 40% 1 28.11.2026 -
Lucas Chiozza Alvarado Ativo 106 / 119 40% 1 28.11.2026 -
Jonathan Bilbao Carabobo Ativo 89 / 87 40% 1 28.11.2026 -
Nahuel González Alvarado Ativo 90 / 104 40% 1 27.11.2026 -
Elías Villar Nacional Ativo 79 / 104 40% 2 26.11.2026 -
Rafael Haller Liverpool Montevideo Ativo 98 / 105 40% 1 24.11.2026 -
Santiago Otegui Plaza Colonia Ativo 94 / 86 40% 1 24.11.2026 -
Moisés Gallo Aragua Ativo 94 / 94 40% 2 23.11.2026 -
Emiliano Ancheta Nacional Ativo 111 / 121 40% 1 22.11.2026 -
Lautaro Maldonado Instituto Ativo 106 / 104 40% 1 22.11.2026 -
Martín Ginzo Deportivo Maldonado Ativo 114 / 100 40% 2 20.11.2026 -
Tomás González Estudiantes Ativo 117 / 108 40% 2 20.11.2026 -
Jairo Amaro Cerro Ativo 87 / 98 40% 2 19.11.2026 -
Ignacio Yepez Cerrito Ativo 110 / 108 40% 3 18.11.2026 -
Franco Pérez Boston River Ativo 114 / 110 40% 2 16.11.2026 -
Augusto Gallo Fenix Ativo 97 / 93 40% 1 16.11.2026 -
Mauro Rodas Sportivo Trinidense Ativo 93 / 95 40% 2 15.11.2026 -
Jáder Valencia Deportes Tolima Ativo 101 / 121 40% 3 14.11.2026 -
Misael Jaime Chacarita Juniors Ativo 94 / 100 40% 1 14.11.2026 -
Guillermo Gandolfo Central Espanol Ativo 94 / 100 40% 1 14.11.2026 -
Gonzalo Gamarra Defensores Ativo 111 / 101 40% 1 14.11.2026 -
Gianluca Pugliese Güemes Ativo 111 / 122 40% 1 12.11.2026 -
David Veliz Güemes Ativo 115 / 106 40% 2 11.11.2026 -
Lawrence Ennali Houston Dynamo Ativo 130 / 120 40% 1 11.11.2026 -
Facundo Silvera Montevideo City Torque Ativo 109 / 102 40% 1 11.11.2026 -
Lucas Meuli Unión de Santa Fe Ativo 98 / 100 40% 1 10.11.2026 -
Ariel Castellano Alvarado Ativo 103 / 109 40% 2 09.11.2026 -
Diego Ulloa Colo-Colo Ativo 89 / 98 40% 1 09.11.2026 -
Nicolás Fernández Progreso Ativo 111 / 98 40% 2 06.11.2026 Mais informações
Jorge Espejo Universidad de Concepcion Ativo 119 / 113 40% 1 06.11.2026 -
César Munder Palestino Ativo 120 / 120 40% 2 05.11.2026 -
Enzo Silcan Almagro Ativo 102 / 119 40% 3 04.11.2026 -
Estanislao Jara Madryn Ativo 120 / 96 40% 1 04.11.2026 Mais informações
Francisco Salerno Defensores Unidos Ativo 113 / 97 40% 1 04.11.2026 -
Yeferson Cordova Llaneros Ativo 81 / 94 40% 1 03.11.2026 -
Leomar Mosquera Trujillanos Ativo 93 / 105 40% 2 02.11.2026 -
Juan Quintana Montevideo City Torque Ativo 101 / 106 40% 2 02.11.2026 -
Martín Sarrafiore O'Higgins Ativo 122 / 118 40% 1 01.11.2026 -
Nahuel Manganelli San Martín Ativo 106 / 106 40% 2 31.10.2026 -
Aldo Pérez Guarani Ativo 101 / 112 40% 1 31.10.2026 Mais informações
Matías Bazzi Talleres Ativo 106 / 88 40% 1 31.10.2026 -
Jonás Luna Wanderers Ativo 119 / 125 40% 1 29.10.2026 -
Gonzalo Flores Almirante Brown Ativo 101 / 100 40% 1 28.10.2026 -
Braian Galván Oriental Ativo 105 / 111 40% 2 25.10.2026 -
Maicol Ferreira Danubio Ativo 101 / 106 40% 2 25.10.2026 -
Renzo Reynaga Patronato Ativo 122 / 115 40% 2 22.10.2026 -
Juan Yangali San Telmo Ativo 122 / 104 40% 1 22.10.2026 -
Carlos Airala Albion Ativo 89 / 103 40% 1 21.10.2026 -
Javier Mena Deportivo Pereira Ativo 89 / 106 40% 1 21.10.2026 -
Tomás Ferreyra Defensores Unidos Ativo 120 / 103 40% 1 20.10.2026 -
Joaquín Trasante Danubio Ativo 93 / 97 40% 1 20.10.2026 -
Gabriel Carrasco Los Andes Ativo 102 / 100 40% 2 19.10.2026 -
Leandro Umpiérrez Penarol Ativo 98 / 104 40% 1 19.10.2026 -
Francisco Casanova Cerrito Ativo 95 / 112 40% 4 18.10.2026 -
Braian Aranda Agropecuario Argentino Ativo 117 / 121 40% 1 17.10.2026 -
Mario Sanabria Chacarita Juniors Ativo 117 / 102 40% 1 15.10.2026 -
Simón Contreras Iquique Ativo 101 / 86 40% 1 15.10.2026 -
Matías Mir Liverpool Montevideo Ativo 105 / 117 40% 1 15.10.2026 -
Fernando Miranda Colegiales Ativo 95 / 120 40% 1 15.10.2026 -
Nahuel Sena Cerro Ativo 106 / 108 40% 2 12.10.2026 -
Leonardo Olavarría Uruguay Montevideo Ativo 91 / 107 40% 2 12.10.2026 -
Pedro Silva Torrejón Gimnasia La Plata Ativo 129 / 127 40% 1 12.10.2026 -
Ángel Espínola Sportivo Luqueno Ativo 104 / 106 40% 1 10.10.2026 -
Wilfredo Peña Portuguesa Ativo 107 / 89 40% 1 09.10.2026 -
Lucas Monzón Alvarado Ativo 116 / 112 40% 1 09.10.2026 -
Mauricio Guzmán Tristán Suárez Ativo 99 / 100 40% 1 08.10.2026 -
Nahuel Pezzini Arsenal Ativo 116 / 96 40% 1 06.10.2026 -
Agustín Pereira Albion Ativo 114 / 107 40% 2 05.10.2026 -
Edgar Zaldívar Atlas Ativo 106 / 117 40% 2 04.10.2026 -
Matías Espíndola Deportivo Maldonado Ativo 114 / 120 40% 1 03.10.2026 -
Raul Castillo Puebla Ativo 119 / 116 40% 1 01.10.2026 -
Alejo Dramisino Atlanta Ativo 121 / 111 40% 1 01.10.2026 -
Oscar Meza Portuguesa Ativo 83 / 83 40% 1 29.09.2026 -
Luis Guevara Real Cartagena Ativo 106 / 101 40% 1 29.09.2026 -
Julián Vila Arsenal Ativo 119 / 97 40% 1 29.09.2026 -
Tobías Macies Almagro Ativo 110 / 90 40% 1 27.09.2026 -
Marcio Gómez Racing Ativo 102 / 97 40% 1 27.09.2026 -
Camilo Sánchez Miramar Misiones Ativo 92 / 97 40% 1 26.09.2026 -
Luciano Fernández Central Espanol Ativo 105 / 94 40% 2 24.09.2026 -
Álvaro San Emeterio Tacuarembo Ativo 94 / 89 40% 1 24.09.2026 -
Bastián Yáñez O'Higgins Ativo 121 / 124 40% 3 23.09.2026 -
Facundo Silvestre Uruguay Montevideo Ativo 100 / 104 40% 1 22.09.2026 -
Franco Malagueño Colegiales Ativo 106 / 95 40% 1 20.09.2026 -
Dylan Lozano Aguilas Doradas Ativo 99 / 116 40% 1 20.09.2026 -
Diego Villalba Plaza Colonia Ativo 90 / 93 40% 1 19.09.2026 -
Marco Collao Audax Italiano Ativo 103 / 103 40% 1 18.09.2026 -
Santiago Costa Albion Ativo 117 / 98 40% 2 17.09.2026 -
Cristian Lima Uruguay Montevideo Ativo 105 / 97 40% 1 17.09.2026 -
Éwil Murillo Santa Fe Ativo 129 / 124 40% 3 16.09.2026 -
Jhojan Torres Santa Fe Ativo 113 / 124 40% 2 16.09.2026 -
Isaí Valladares Zamora Ativo 103 / 110 40% 1 14.09.2026 -
Santiago Guzmán Wanderers Ativo 88 / 97 40% 1 14.09.2026 -
Zahid Muñoz Morelia Ativo 118 / 113 40% 1 13.09.2026 -
Gabriel Chocobar Oriental Ativo 88 / 99 40% 1 13.09.2026 -
Juan Miguel Betancourth Deportivo Pereira Ativo 72 / 92 40% 1 12.09.2026 -
Jhon Navia Junior Ativo 110 / 97 40% 1 10.09.2026 -
Franco Suárez Racing Ativo 83 / 92 40% 1 10.09.2026 -
Juan Camilo Mosquera Atletico Bucaramanga Ativo 105 / 125 40% 2 04.09.2026 -
Diego Núñez Colon Ativo 101 / 91 40% 1 03.09.2026 -
Mateo Puerta Deportivo Cali Ativo 118 / 123 40% 1 02.09.2026 -
Cristóbal Guerra San Marcos de Arica Ativo 107 / 95 40% 1 02.09.2026 -
Brian Farioli Estudiantes Ativo 117 / 123 40% 1 01.09.2026 -
Diego Giraldo Universitario Popayan Ativo 101 / 99 40% 1 29.08.2026 -
Germán Peralta La Luz Ativo 98 / 96 40% 1 28.08.2026 -
Carlo Villanueva Union La Calera Ativo 88 / 93 40% 1 28.08.2026 -
Félix Charrupí Atletico Bucaramanga Ativo 119 / 121 40% 1 27.08.2026 -
Agustín Chopitea Colon Ativo 108 / 107 40% 2 26.08.2026 -
Brayan Murillo Envigado Ativo 84 / 93 40% 1 24.08.2026 -
Brian González Atenas Ativo 94 / 88 40% 1 23.08.2026 -
Esteban Beltrán Jaguares Ativo 100 / 97 40% 1 20.08.2026 -
Adrián Vila Rampla Juniors Ativo 84 / 93 40% 1 20.08.2026 -
Joiner Moreno Real Cartagena Ativo 108 / 113 40% 1 19.08.2026 -
Ezequiel Navarro Montoya Atlanta United FC Ativo 85 / 102 40% 1 19.08.2026 -
Léider Riascos Llaneros Ativo 119 / 116 40% 2 18.08.2026 -
Christopher Montaña Portuguesa Ativo 108 / 95 40% 1 18.08.2026 -
Yamil García Rampla Juniors Ativo 102 / 86 40% 1 16.08.2026 -
Lucas Arzamendia Atenas Ativo 97 / 103 40% 1 14.08.2026 -
Williams Barlasina Fortaleza CEIF Ativo 106 / 113 40% 1 13.08.2026 -
Déiber Caicedo Junior Ativo 117 / 127 40% 1 12.08.2026 -
Esteban Rodríguez Uruguay Montevideo Ativo 76 / 76 40% 1 10.08.2026 -
Jairo O'Neill Boston River Ativo 101 / 88 40% 1 10.08.2026 -
Nicolás Rodríguez Oriental Ativo 85 / 97 40% 1 10.08.2026 -
César González Queretaro Ativo 88 / 80 40% 1 10.08.2026 -
Roameth Romaña Llaneros Ativo 87 / 92 40% 1 09.08.2026 -
Enzo Porro Wanderers Ativo 87 / 89 40% 1 08.08.2026 -
Agustín da Silveira Sportivo Trinidense Ativo 97 / 113 40% 1 04.08.2026 -
Nicolás Rossi Juventud Ativo 119 / 111 40% 1 03.08.2026 -
Sebastián Vargas Nacional Ativo 111 / 98 40% 1 02.08.2026 -